CST,Max TemperatureF,Mean TemperatureF,Min TemperatureF,Max Dew PointF,MeanDew PointF,Min DewpointF,Max Humidity, Mean Humidity, Min Humidity, Max Sea Level PressureIn, Mean Sea Level PressureIn, Min Sea Level PressureIn, Max VisibilityMiles, Mean VisibilityMiles, Min VisibilityMiles, Max Wind SpeedMPH, Mean Wind SpeedMPH, Max Gust SpeedMPH,PrecipitationIn, CloudCover, Events, WindDirDegrees
2012-1-1,37,30,24,36,26,12,100,82,59,29.90,29.67,29.54,10,7,2,15,8,29,0.04,8,,309
2012-1-2,24,16,8,12,6,0,79,62,46,30.36,30.14,29.90,10,10,10,23,11,33,0.00,4,,332
2012-1-3,21,12,3,14,5,0,100,74,58,30.34,30.19,29.92,10,10,9,16,5,21,0.00,2,,251
2012-1-4,30,22,15,21,16,9,86,71,64,29.95,29.90,29.83,10,10,10,9,6,16,0.00,3,,275
2012-1-5,41,31,21,30,24,18,100,74,56,29.93,29.73,29.47,10,10,10,15,6,18,0.00,1,,236
2012-1-6,46,40,33,30,28,25,75,63,43,29.67,29.57,29.48,10,10,10,10,7,16,0.00,0,,263
2012-1-7,35,27,19,27,20,12,93,66,48,30.22,29.98,29.67,10,10,10,12,6,20,0.00,6,,318
2012-1-8,39,27,15,25,19,14,100,73,41,30.25,30.22,30.18,10,10,10,10,4,,0.00,3,,255
2012-1-9,44,36,28,28,25,23,86,67,46,30.10,29.86,29.70,10,10,10,17,10,26,0.00,2,,254
2012-1-10,44,32,19,32,27,19,100,76,53,29.97,29.85,29.69,10,10,10,17,5,21,0.00,0,,232
2012-1-11,44,35,26,30,29,25,100,80,57,29.68,29.61,29.55,10,8,0,9,3,,0.00,0,,334
2012-1-12,35,27,19,34,21,14,93,83,69,29.57,29.53,29.46,10,5,1,17,11,24,0.00,8,,360
2012-1-13,21,18,15,18,11,5,86,71,54,29.99,29.76,29.51,10,9,3,21,14,29,0.00,8,,349
2012-1-14,17,11,5,12,7,1,100,78,67,30.19,30.10,30.00,10,9,2,7,3,,0.00,7,,309
2012-1-15,33,18,3,27,16,0,100,82,68,30.26,30.16,29.96,10,9,5,22,5,33,0.00,8,,195
2012-1-16,35,30,26,27,25,21,93,77,65,29.94,29.80,29.72,10,9,5,14,7,17,0.00,7,,351
2012-1-17,30,22,14,21,13,1,93,69,53,30.14,29.90,29.78,10,8,1,21,13,31,0.00,7,,358
2012-1-18,19,11,3,10,4,-2,100,67,53,30.18,30.03,29.73,10,10,10,21,6,29,0.00,3,,232
2012-1-19,19,10,-2,18,-5,-15,93,60,44,30.10,29.87,29.59,10,10,2,17,10,32,0.00,2,,291
2012-1-20,8,0,-7,-6,-12,-18,84,60,43,30.20,30.17,30.14,10,10,10,8,4,,0.00,3,,269
2012-1-21,17,8,-2,7,-2,-11,78,61,49,30.26,30.21,30.16,10,10,10,9,4,,0.00,0,,235
2012-1-22,33,25,17,34,27,14,100,90,74,30.08,29.86,29.66,10,7,1,21,9,29,0.00,8,,173
2012-1-23,35,34,30,34,32,28,100,93,81,29.55,29.36,29.25,10,5,0,18,9,23,0.33,8,,353
2012-1-24,30,24,19,19,17,12,93,69,59,30.29,30.05,29.71,10,10,10,15,7,22,0.00,5,,306
2012-1-25,30,22,14,28,20,12,100,81,64,30.33,30.23,30.08,10,8,5,8,3,,0.00,7,,219
2012-1-26,33,30,28,30,29,27,100,92,86,30.02,29.79,29.63,5,4,1,13,8,21,0.00,7,,228
2012-1-27,39,34,28,28,21,16,87,62,41,29.80,29.74,29.61,10,10,5,16,6,21,0.00,4,,273
2012-1-28,32,26,21,32,19,10,100,74,51,29.89,29.75,29.68,10,9,2,18,9,28,0.00,4,,291
2012-1-29,24,18,12,10,8,1,79,61,46,30.13,29.99,29.89,10,10,10,13,7,18,0.00,3,,297
2012-1-30,32,18,5,28,18,1,100,90,73,30.14,29.94,29.76,10,7,0,17,3,23,0.00,6,,136
2012-1-31,44,30,17,36,28,14,100,84,61,29.76,29.66,29.59,10,6,0,9,2,16,0.01,1,,259